Time;durP1;ratioP1;P1;durP2;ratioP2;P2;SDS_P1;SDS_P2;PMS_P1;PMS_P2;Temp;Humidity;BMP_temperature;BMP_pressure;BME280_temperature;BME280_humidity;BME280_pressure;Samples;Min_cycle;Max_cycle;Signal;HPM_P1;HPM_P2
2020/12/21 00:02:06;;;;;;;1999.90;999.90;;;6.80;99.90;;;;;;5033346;28;20166;-83
2020/12/21 00:04:31;;;;;;;1999.90;999.90;;;6.70;99.90;;;;;;5032522;28;20215;-83
2020/12/21 00:06:58;;;;;;;1999.90;999.90;;;6.70;99.90;;;;;;5032539;28;20165;-83
2020/12/21 00:09:26;;;;;;;1999.90;999.90;;;6.70;99.90;;;;;;5032465;28;20192;-83
2020/12/21 00:11:52;;;;;;;1999.90;999.90;;;6.60;99.90;;;;;;5031143;28;20170;-83
2020/12/21 00:14:21;;;;;;;1999.90;999.90;;;6.60;99.90;;;;;;5032719;28;20188;-83
2020/12/21 00:16:50;;;;;;;1999.90;999.90;;;6.50;99.90;;;;;;5031006;28;20181;-83
2020/12/21 00:19:18;;;;;;;1999.90;999.90;;;6.50;99.90;;;;;;5031138;28;20165;-83
2020/12/21 00:21:49;;;;;;;1999.90;999.90;;;6.60;99.90;;;;;;5030794;28;20663;-83
2020/12/21 00:24:15;;;;;;;1999.90;999.90;;;6.50;99.90;;;;;;5031796;28;20161;-83
2020/12/21 00:26:46;;;;;;;1999.90;999.90;;;6.50;99.90;;;;;;5032451;28;20521;-83
2020/12/21 00:29:12;;;;;;;1999.90;999.90;;;6.50;99.90;;;;;;5031977;28;20169;-83
2020/12/21 00:31:38;;;;;;;1999.90;999.90;;;6.50;99.90;;;;;;5031831;28;20200;-83
2020/12/21 00:34:07;;;;;;;1999.90;999.90;;;6.50;99.90;;;;;;5031245;28;20797;-83
2020/12/21 00:36:47;;;;;;;1999.90;999.90;;;6.40;99.90;;;;;;5032343;28;20428;-83
2020/12/21 00:39:13;;;;;;;1999.90;999.90;;;6.40;99.90;;;;;;5031842;28;20228;-83
2020/12/21 00:41:39;;;;;;;1999.90;999.90;;;6.40;99.90;;;;;;5031559;28;20244;-83
2020/12/21 00:44:05;;;;;;;1999.90;999.90;;;6.40;99.90;;;;;;5031302;28;20174;-83
2020/12/21 00:46:32;;;;;;;1999.90;999.90;;;6.30;99.90;;;;;;5030342;28;20201;-83
2020/12/21 00:49:00;;;;;;;1999.90;999.90;;;6.30;99.90;;;;;;5031899;28;20157;-83
2020/12/21 00:51:26;;;;;;;1999.90;999.90;;;6.30;99.90;;;;;;5031453;28;20166;-83
2020/12/21 00:53:52;;;;;;;1999.90;999.90;;;6.20;99.90;;;;;;5030403;28;20197;-83
2020/12/21 00:56:19;;;;;;;1999.90;999.90;;;6.20;99.90;;;;;;5031317;28;20162;-83
2020/12/21 00:58:46;;;;;;;1999.90;999.90;;;6.10;99.90;;;;;;5031638;28;20423;-83
2020/12/21 01:01:14;;;;;;;1999.90;999.90;;;6.20;99.90;;;;;;5031681;28;20156;-83
2020/12/21 01:03:40;;;;;;;1999.90;999.90;;;6.20;99.90;;;;;;5031462;28;20636;-83
2020/12/21 01:06:06;;;;;;;1999.90;999.90;;;6.20;99.90;;;;;;5018729;28;20226;-83
2020/12/21 01:08:35;;;;;;;1999.90;999.90;;;6.20;99.90;;;;;;5016947;28;20569;-83
2020/12/21 01:11:01;;;;;;;1999.90;999.90;;;6.20;99.90;;;;;;5017944;28;20400;-83
2020/12/21 01:13:27;;;;;;;1999.90;999.90;;;6.10;99.90;;;;;;5017824;28;20240;-83
2020/12/21 01:15:53;;;;;;;1999.90;999.90;;;6.10;99.90;;;;;;5016842;28;20405;-83
2020/12/21 01:18:19;;;;;;;1999.90;999.90;;;6.00;99.90;;;;;;5018045;28;20791;-83
2020/12/21 01:20:44;;;;;;;1999.90;999.90;;;6.00;99.90;;;;;;5018173;28;20158;-83
2020/12/21 01:23:10;;;;;;;1999.90;999.90;;;6.10;99.90;;;;;;5018073;28;20170;-83
2020/12/21 01:25:36;;;;;;;1999.90;999.90;;;6.00;99.90;;;;;;5018057;28;20431;-83
2020/12/21 01:28:02;;;;;;;1999.90;999.90;;;6.00;99.90;;;;;;5018294;28;20177;-83
2020/12/21 01:30:28;;;;;;;1999.90;999.90;;;5.90;99.90;;;;;;5018395;28;20180;-83
2020/12/21 01:32:54;;;;;;;1999.90;999.90;;;5.90;99.90;;;;;;5016834;28;20284;-83
2020/12/21 01:35:19;;;;;;;1999.90;999.90;;;5.90;99.90;;;;;;5018285;28;20212;-83
2020/12/21 01:37:45;;;;;;;1999.90;999.90;;;5.90;99.90;;;;;;5017620;28;20790;-83
2020/12/21 01:40:11;;;;;;;1999.90;999.90;;;5.90;99.90;;;;;;5016585;28;20235;-83
2020/12/21 01:42:37;;;;;;;1999.90;999.90;;;5.80;99.90;;;;;;5016089;28;20193;-83
2020/12/21 01:45:08;;;;;;;1999.90;999.90;;;5.80;99.90;;;;;;5017688;28;20212;-83
2020/12/21 01:47:35;;;;;;;1999.90;999.90;;;5.80;99.90;;;;;;5016442;28;20244;-83
2020/12/21 01:50:03;;;;;;;1999.90;999.90;;;5.70;99.90;;;;;;5017387;28;20524;-83
2020/12/21 01:52:29;;;;;;;1999.90;999.90;;;5.70;99.90;;;;;;5017538;28;20632;-83
2020/12/21 01:54:55;;;;;;;1999.90;999.90;;;5.70;99.90;;;;;;5017291;28;20166;-83
2020/12/21 01:57:21;;;;;;;1999.90;999.90;;;5.70;99.90;;;;;;5016356;28;20216;-83
2020/12/21 01:59:46;;;;;;;1999.90;999.90;;;5.70;99.90;;;;;;5016153;28;20215;-83
2020/12/21 02:02:12;;;;;;;1999.90;999.90;;;5.70;99.90;;;;;;5017339;28;20643;-83
2020/12/21 02:04:38;;;;;;;1999.90;999.90;;;5.60;99.90;;;;;;5017719;28;20635;-83
2020/12/21 02:07:06;;;;;;;1999.90;999.90;;;5.60;99.90;;;;;;5017351;28;20409;-83
2020/12/21 02:09:32;;;;;;;1999.90;999.90;;;5.50;99.90;;;;;;5015936;28;20173;-83
2020/12/21 02:11:57;;;;;;;1999.90;999.90;;;5.50;99.90;;;;;;5017235;28;20632;-83
2020/12/21 02:14:23;;;;;;;1999.90;999.90;;;5.50;99.90;;;;;;5017063;28;20495;-83
2020/12/21 02:16:49;;;;;;;1999.90;999.90;;;5.50;99.90;;;;;;5016248;28;20658;-83
2020/12/21 02:19:15;;;;;;;1999.90;999.90;;;5.50;99.90;;;;;;5016901;28;20186;-83
2020/12/21 02:21:40;;;;;;;1999.90;999.90;;;5.50;99.90;;;;;;5016745;28;20173;-83
2020/12/21 02:24:09;;;;;;;1999.90;999.90;;;5.50;99.90;;;;;;5015682;28;20181;-83
2020/12/21 02:26:35;;;;;;;1999.90;999.90;;;5.50;99.90;;;;;;5017206;28;20166;-83
2020/12/21 02:29:00;;;;;;;1999.90;999.90;;;5.60;99.90;;;;;;5015395;28;20196;-83
2020/12/21 02:31:27;;;;;;;1999.90;999.90;;;5.60;99.90;;;;;;5017011;28;20642;-83
2020/12/21 02:33:53;;;;;;;1999.90;999.90;;;5.60;99.90;;;;;;5015452;28;20185;-83
2020/12/21 02:36:19;;;;;;;1999.90;999.90;;;5.50;99.90;;;;;;5016672;28;20161;-83
2020/12/21 02:38:45;;;;;;;1999.90;999.90;;;5.50;99.90;;;;;;5016289;28;20171;-83
2020/12/21 02:41:15;;;;;;;1999.90;999.90;;;5.40;99.90;;;;;;5016877;28;20667;-83
2020/12/21 02:43:41;;;;;;;1999.90;999.90;;;5.50;99.90;;;;;;5017205;28;20188;-83
2020/12/21 02:46:08;;;;;;;1999.90;999.90;;;5.40;99.90;;;;;;5015302;28;20174;-83
2020/12/21 02:48:34;;;;;;;1999.90;999.90;;;5.50;99.90;;;;;;5016866;28;20166;-83
2020/12/21 02:50:59;;;;;;;1999.90;999.90;;;5.40;99.90;;;;;;5015183;28;20629;-83
2020/12/21 02:53:25;;;;;;;1999.90;999.90;;;5.50;99.90;;;;;;5014834;28;20691;-83
2020/12/21 02:55:51;;;;;;;1999.90;999.90;;;5.40;99.90;;;;;;5015511;28;20508;-83
2020/12/21 02:58:17;;;;;;;1999.90;999.90;;;5.40;99.90;;;;;;5015104;28;20914;-83
2020/12/21 03:00:43;;;;;;;1999.90;999.90;;;5.40;99.90;;;;;;5016235;28;20181;-84
2020/12/21 03:03:09;;;;;;;1999.90;999.90;;;5.40;99.90;;;;;;5016565;28;20177;-83
2020/12/21 03:05:35;;;;;;;1999.90;999.90;;;5.40;99.90;;;;;;5016439;28;20165;-83
2020/12/21 03:08:03;;;;;;;1999.90;999.90;;;5.50;99.90;;;;;;5015372;28;20264;-83
2020/12/21 03:10:28;;;;;;;1999.90;999.90;;;5.30;99.90;;;;;;5014809;28;20169;-83
2020/12/21 03:12:54;;;;;;;1999.90;999.90;;;5.30;99.90;;;;;;5015205;28;20200;-84
2020/12/21 03:15:20;;;;;;;1999.90;999.90;;;5.20;99.90;;;;;;5016518;28;20158;-84
2020/12/21 03:17:46;;;;;;;1999.90;999.90;;;5.20;99.90;;;;;;5014294;28;20173;-83
2020/12/21 03:20:11;;;;;;;1999.90;999.90;;;5.20;99.90;;;;;;5015130;28;20748;-84
2020/12/21 03:22:37;;;;;;;1999.90;999.90;;;5.20;99.90;;;;;;5016035;28;20157;-83
2020/12/21 03:25:04;;;;;;;1999.90;999.90;;;5.20;99.90;;;;;;5014927;28;20228;-83
2020/12/21 03:27:29;;;;;;;1999.90;999.90;;;5.20;99.90;;;;;;5016236;28;20170;-83
2020/12/21 03:29:55;;;;;;;1999.90;999.90;;;5.20;99.90;;;;;;5016304;28;20235;-83
2020/12/21 03:32:21;;;;;;;1999.90;999.90;;;5.30;99.90;;;;;;5014888;28;20168;-83
2020/12/21 03:34:47;;;;;;;1999.90;999.90;;;5.30;99.90;;;;;;5016034;28;20548;-83
2020/12/21 03:37:12;;;;;;;1999.90;999.90;;;5.40;99.90;;;;;;5015790;28;20405;-83
2020/12/21 03:39:38;;;;;;;1999.90;999.90;;;5.40;99.90;;;;;;5015990;28;20170;-83
2020/12/21 03:42:04;;;;;;;1999.90;999.90;;;5.50;99.90;;;;;;5014482;28;20170;-84
2020/12/21 03:44:30;;;;;;;1999.90;999.90;;;5.40;99.90;;;;;;5016053;28;20248;-83
2020/12/21 03:46:56;;;;;;;1999.90;999.90;;;5.40;99.90;;;;;;5014754;28;20417;-83
2020/12/21 03:49:22;;;;;;;1999.90;999.90;;;5.40;99.90;;;;;;5015533;28;20220;-84
2020/12/21 03:51:47;;;;;;;1999.90;999.90;;;5.40;99.90;;;;;;5015479;28;20174;-83
2020/12/21 03:54:13;;;;;;;1999.90;999.90;;;5.30;99.90;;;;;;5014597;28;20447;-83
2020/12/21 03:56:45;;;;;;;1999.90;999.90;;;5.30;99.90;;;;;;5014565;28;20289;-84
2020/12/21 03:59:11;;;;;;;1999.90;999.90;;;5.30;99.90;;;;;;5016477;28;20173;-83
2020/12/21 04:01:37;;;;;;;1999.90;999.90;;;5.30;99.90;;;;;;5015778;28;20169;-83
2020/12/21 04:04:07;;;;;;;1999.90;999.90;;;5.30;99.90;;;;;;5014074;28;20177;-83
2020/12/21 04:06:33;;;;;;;1999.90;999.90;;;5.30;99.90;;;;;;5014449;28;20636;-84
2020/12/21 04:08:59;;;;;;;1999.90;999.90;;;5.30;99.90;;;;;;5014325;28;20698;-84
2020/12/21 04:11:25;;;;;;;1999.90;999.90;;;5.30;99.90;;;;;;5015384;28;20170;-84
2020/12/21 04:13:50;;;;;;;1999.90;999.90;;;5.30;99.90;;;;;;5015868;28;20676;-83
2020/12/21 04:16:16;;;;;;;1999.90;999.90;;;5.30;99.90;;;;;;5015759;28;20568;-83
2020/12/21 04:18:42;;;;;;;1999.90;999.90;;;5.30;99.90;;;;;;5014797;28;20256;-83
2020/12/21 04:21:11;;;;;;;1999.90;999.90;;;5.30;99.90;;;;;;5016007;28;20166;-84
2020/12/21 04:23:38;;;;;;;1999.90;999.90;;;5.20;99.90;;;;;;5014495;28;20170;-84
2020/12/21 04:26:07;;;;;;;1999.90;999.90;;;5.20;99.90;;;;;;5015909;28;20212;-84
2020/12/21 04:28:34;;;;;;;1999.90;999.90;;;5.20;99.90;;;;;;5015973;28;20174;-83
2020/12/21 04:31:08;;;;;;;1999.90;999.90;;;5.20;99.90;;;;;;5014713;28;20173;-84
2020/12/21 04:33:34;;;;;;;1999.90;999.90;;;5.20;99.90;;;;;;5014757;28;20192;-84
2020/12/21 04:36:00;;;;;;;1999.90;999.90;;;5.20;99.90;;;;;;5089228;22;20170;-83
2020/12/21 04:38:26;;;;;;;1999.90;999.90;;;5.20;99.90;;;;;;5015175;28;20421;-86
2020/12/21 04:40:52;;;;;;;1999.90;999.90;;;5.20;99.90;;;;;;5017479;28;20447;-85
2020/12/21 04:43:18;;;;;;;1999.90;999.90;;;5.20;99.90;;;;;;5017289;28;20213;-83
2020/12/21 04:45:45;;;;;;;1999.90;999.90;;;5.30;99.90;;;;;;5018333;28;20176;-83
2020/12/21 04:48:15;;;;;;;1999.90;999.90;;;5.30;99.90;;;;;;5018141;28;20225;-83
2020/12/21 04:50:42;;;;;;;1999.90;999.90;;;5.30;99.90;;;;;;5098272;23;20217;-82
2020/12/21 04:53:08;;;;;;;1999.90;999.90;;;5.30;99.90;;;;;;5042894;28;20188;-82
2020/12/21 04:55:34;;;;;;;1999.90;999.90;;;5.40;99.90;;;;;;5042673;28;20189;-82
2020/12/21 04:58:03;;;;;;;1999.90;999.90;;;5.40;99.90;;;;;;5043112;28;20168;-80
2020/12/21 05:00:32;;;;;;;1999.90;999.90;;;5.40;99.90;;;;;;5042667;28;20491;-81
2020/12/21 05:02:59;;;;;;;1999.90;999.90;;;5.40;99.90;;;;;;5041274;28;20694;-82
2020/12/21 05:05:48;;;;;;;1999.90;999.90;;;5.30;99.90;;;;;;5042872;28;20539;-82
2020/12/21 05:08:24;;;;;;;1999.90;999.90;;;5.30;99.90;;;;;;5042569;28;20160;-80
2020/12/21 05:10:57;;;;;;;1999.90;999.90;;;5.30;99.90;;;;;;5042937;28;20179;-80
2020/12/21 05:13:24;;;;;;;1999.90;999.90;;;5.30;99.90;;;;;;5041561;28;20193;-82
2020/12/21 05:15:51;;;;;;;1999.90;999.90;;;5.40;99.90;;;;;;5042494;28;20185;-81
2020/12/21 05:18:17;;;;;;;1999.90;999.90;;;5.40;99.90;;;;;;5042280;28;20188;-80
2020/12/21 05:20:44;;;;;;;1999.90;999.90;;;5.40;99.90;;;;;;5041049;28;20169;-81
2020/12/21 05:23:16;;;;;;;1999.90;999.90;;;5.30;99.90;;;;;;5042785;28;20162;-80
2020/12/21 05:25:43;;;;;;;1999.90;999.90;;;5.30;99.90;;;;;;5043106;28;20169;-81
2020/12/21 05:28:14;;;;;;;1999.90;999.90;;;5.30;99.90;;;;;;5042798;28;20161;-80
2020/12/21 05:30:54;;;;;;;1999.90;999.90;;;5.40;99.90;;;;;;5042558;28;20195;-80
2020/12/21 05:33:20;;;;;;;1999.90;999.90;;;5.40;99.90;;;;;;5042767;28;20224;-80
2020/12/21 05:35:47;;;;;;;1999.90;999.90;;;5.40;99.90;;;;;;5042427;28;20169;-82
2020/12/21 05:38:27;;;;;;;1999.90;999.90;;;5.40;99.90;;;;;;5042086;28;20158;-82
2020/12/21 05:41:06;;;;;;;1999.90;999.90;;;5.40;99.90;;;;;;5041964;28;20150;-80
2020/12/21 05:43:32;;;;;;;1999.90;999.90;;;5.40;99.90;;;;;;5042599;28;20157;-82
2020/12/21 05:46:14;;;;;;;1999.90;999.90;;;5.40;99.90;;;;;;5042751;28;20555;-80
2020/12/21 05:48:51;;;;;;;1999.90;999.90;;;5.30;99.90;;;;;;5043143;28;20795;-80
2020/12/21 05:51:25;;;;;;;1999.90;999.90;;;5.40;99.90;;;;;;5042495;28;20185;-80
2020/12/21 05:53:55;;;;;;;1999.90;999.90;;;5.40;99.90;;;;;;5042701;28;20302;-82
2020/12/21 05:56:22;;;;;;;1999.90;999.90;;;5.40;99.90;;;;;;5042208;28;20192;-79
2020/12/21 05:58:49;;;;;;;1999.90;999.90;;;5.40;99.90;;;;;;5041479;28;20228;-80
2020/12/21 06:01:15;;;;;;;1999.90;999.90;;;5.50;99.90;;;;;;5042330;28;20697;-82
2020/12/21 06:03:46;;;;;;;1999.90;999.90;;;5.50;99.90;;;;;;5041079;28;20236;-80
2020/12/21 06:06:16;;;;;;;1999.90;999.90;;;5.50;99.90;;;;;;5041755;28;20157;-80
2020/12/21 06:08:43;;;;;;;1999.90;999.90;;;5.60;99.90;;;;;;5043024;28;20240;-80
2020/12/21 06:11:17;;;;;;;1999.90;999.90;;;5.60;99.90;;;;;;5042208;28;20192;-80
2020/12/21 06:13:56;;;;;;;1999.90;999.90;;;5.50;99.90;;;;;;5042735;28;20189;-80
2020/12/21 06:16:24;;;;;;;1999.90;999.90;;;5.60;99.90;;;;;;5041926;28;20162;-82
2020/12/21 06:19:25;;;;;;;1999.90;999.90;;;5.50;99.90;;;;;;5040583;28;20165;-81
2020/12/21 06:21:53;;;;;;;1999.90;999.90;;;5.60;99.90;;;;;;5041053;28;20225;-81
2020/12/21 06:24:26;;;;;;;1999.90;999.90;;;5.60;99.90;;;;;;5041398;28;20524;-81
2020/12/21 06:26:53;;;;;;;1999.90;999.90;;;5.70;99.90;;;;;;5040304;28;20184;-83
2020/12/21 06:29:25;;;;;;;1999.90;999.90;;;5.70;99.90;;;;;;5040061;28;20161;-82
2020/12/21 06:32:02;;;;;;;1999.90;999.90;;;5.70;99.90;;;;;;5040567;28;20173;-82
2020/12/21 06:34:27;;;;;;;1999.90;999.90;;;5.70;99.90;;;;;;5041338;28;20176;-82
2020/12/21 06:37:06;;;;;;;1999.90;999.90;;;5.70;99.90;;;;;;5041485;28;20663;-82
2020/12/21 06:39:32;;;;;;;1999.90;999.90;;;5.70;99.90;;;;;;5040945;28;20157;-82
2020/12/21 06:42:02;;;;;;;1999.90;999.90;;;5.70;99.90;;;;;;5040101;28;20161;-82
2020/12/21 06:44:29;;;;;;;1999.90;999.90;;;5.70;99.90;;;;;;5038553;28;20266;-82
2020/12/21 06:46:56;;;;;;;1999.90;999.90;;;5.70;99.90;;;;;;5038584;28;20165;-82
2020/12/21 06:49:21;;;;;;;1999.90;999.90;;;5.70;99.90;;;;;;5040263;28;20161;-82
2020/12/21 06:51:47;;;;;;;1999.90;999.90;;;5.70;99.90;;;;;;5039159;28;20248;-79
2020/12/21 06:54:16;;;;;;;1999.90;999.90;;;5.70;99.90;;;;;;5038826;28;20185;-81
2020/12/21 06:56:45;;;;;;;1999.90;999.90;;;5.70;99.90;;;;;;5039814;28;20404;-82
2020/12/21 06:59:18;;;;;;;1999.90;999.90;;;5.70;99.90;;;;;;5040094;28;20165;-82
2020/12/21 07:01:49;;;;;;;1999.90;999.90;;;5.60;99.90;;;;;;5040333;28;20654;-82
2020/12/21 07:04:28;;;;;;;1999.90;999.90;;;5.70;99.90;;;;;;5039742;28;20169;-82
2020/12/21 07:06:54;;;;;;;1999.90;999.90;;;5.70;99.90;;;;;;5040876;28;20638;-82
2020/12/21 07:09:24;;;;;;;1999.90;999.90;;;5.70;99.90;;;;;;5040442;28;20182;-82
2020/12/21 07:12:02;;;;;;;1999.90;999.90;;;5.70;99.90;;;;;;5040485;28;20172;-82
2020/12/21 07:14:29;;;;;;;1999.90;999.90;;;5.80;99.90;;;;;;5040636;28;20209;-82
2020/12/21 07:17:08;;;;;;;1999.90;999.90;;;5.80;99.90;;;;;;5040640;28;20170;-83
2020/12/21 07:19:38;;;;;;;1999.90;999.90;;;5.80;99.90;;;;;;5039300;28;20173;-83
2020/12/21 07:22:06;;;;;;;1999.90;999.90;;;5.80;99.90;;;;;;5040352;28;20173;-83
2020/12/21 07:24:32;;;;;;;1999.90;999.90;;;5.80;99.90;;;;;;5040404;28;20169;-83
2020/12/21 07:26:58;;;;;;;1999.90;999.90;;;5.80;99.90;;;;;;5041123;28;20174;-83
2020/12/21 07:29:38;;;;;;;1999.90;999.90;;;5.80;99.90;;;;;;5044104;28;20245;-83
2020/12/21 07:32:04;;;;;;;1999.90;999.90;;;5.80;99.90;;;;;;5044723;28;20384;-82
2020/12/21 07:34:30;;;;;;;1999.90;999.90;;;5.80;99.90;;;;;;5042510;28;20220;-82
2020/12/21 07:36:56;;;;;;;1999.90;999.90;;;5.90;99.90;;;;;;5042733;28;20166;-82
2020/12/21 07:39:22;;;;;;;1999.90;999.90;;;5.90;99.90;;;;;;5043619;28;20897;-82
2020/12/21 07:41:53;;;;;;;1999.90;999.90;;;5.90;99.90;;;;;;5043966;28;20160;-82
2020/12/21 07:44:26;;;;;;;1999.90;999.90;;;6.00;99.90;;;;;;5044148;28;20388;-83
2020/12/21 07:47:01;;;;;;;1999.90;999.90;;;6.00;99.90;;;;;;5040716;28;20171;-83
2020/12/21 07:49:30;;;;;;;1999.90;999.90;;;6.10;99.90;;;;;;5037470;28;20746;-82
2020/12/21 07:52:02;;;;;;;1999.90;999.90;;;6.10;99.90;;;;;;5036603;28;20173;-82
2020/12/21 07:54:28;;;;;;;1999.90;999.90;;;6.10;99.90;;;;;;5037181;28;20194;-82
2020/12/21 07:57:20;;;;;;;1999.90;999.90;;;6.10;99.90;;;;;;5038920;28;20172;-82
2020/12/21 07:59:57;;;;;;;1999.90;999.90;;;6.20;99.90;;;;;;5038075;28;20180;-82
2020/12/21 08:02:24;;;;;;;1999.90;999.90;;;6.20;99.90;;;;;;5036988;28;20191;-82
2020/12/21 08:04:49;;;;;;;1999.90;999.90;;;6.20;99.90;;;;;;5038765;28;20176;-82
2020/12/21 08:07:15;;;;;;;1999.90;999.90;;;6.20;99.90;;;;;;5038484;28;20627;-83
2020/12/21 08:09:43;;;;;;;1999.90;999.90;;;6.30;99.90;;;;;;5038604;28;20238;-83
2020/12/21 08:12:10;;;;;;;1999.90;999.90;;;6.30;99.90;;;;;;5038704;28;20412;-83
2020/12/21 08:14:36;;;;;;;1999.90;999.90;;;6.30;99.90;;;;;;5036930;28;20698;-82
2020/12/21 08:17:16;;;;;;;1999.90;999.90;;;6.30;99.90;;;;;;5042602;28;20165;-82
2020/12/21 08:20:07;;;;;;;1999.90;999.90;;;6.40;99.90;;;;;;5042139;28;20157;-82
2020/12/21 08:22:36;;;;;;;1999.90;999.90;;;6.40;99.90;;;;;;5044025;28;20161;-82
2020/12/21 08:25:14;;;;;;;1999.90;999.90;;;6.40;99.90;;;;;;5042272;28;20290;-82
2020/12/21 08:27:52;;;;;;;1999.90;999.90;;;6.50;99.90;;;;;;5042310;28;20172;-82
2020/12/21 08:30:23;;;;;;;1999.90;999.90;;;6.50;99.90;;;;;;5043240;28;20175;-82
2020/12/21 08:32:50;;;;;;;1999.90;999.90;;;6.60;99.90;;;;;;5042632;28;20228;-83
2020/12/21 08:35:29;;;;;;;1999.90;999.90;;;6.70;99.90;;;;;;5042871;28;20184;-82
2020/12/21 08:38:07;;;;;;;1999.90;999.90;;;6.70;99.90;;;;;;5043733;28;20624;-82
2020/12/21 08:40:33;;;;;;;1999.90;999.90;;;6.80;99.90;;;;;;5043437;28;20199;-82
2020/12/21 08:42:59;;;;;;;1999.90;999.90;;;6.80;99.90;;;;;;5043570;28;20165;-83
2020/12/21 08:45:25;;;;;;;1999.90;999.90;;;6.90;99.90;;;;;;5040995;28;20169;-82
2020/12/21 08:47:50;;;;;;;1999.90;999.90;;;6.90;99.90;;;;;;5042494;28;20165;-83
2020/12/21 08:50:16;;;;;;;1999.90;999.90;;;6.90;99.90;;;;;;5042200;28;20184;-81
2020/12/21 08:52:42;;;;;;;1999.90;999.90;;;7.00;99.90;;;;;;5041804;28;20227;-83
2020/12/21 08:55:08;;;;;;;1999.90;999.90;;;7.00;99.90;;;;;;5040100;28;20173;-79
2020/12/21 08:57:34;;;;;;;1999.90;999.90;;;7.00;99.90;;;;;;5038562;28;20172;-82
2020/12/21 09:00:00;;;;;;;1999.90;999.90;;;7.00;99.90;;;;;;5039453;28;20627;-80
2020/12/21 09:02:26;;;;;;;1999.90;999.90;;;7.00;99.90;;;;;;5041301;28;20212;-83
2020/12/21 09:04:52;;;;;;;1999.90;999.90;;;7.00;99.90;;;;;;5040568;28;20499;-83
2020/12/21 09:07:17;;;;;;;1999.90;999.90;;;7.00;99.90;;;;;;5042672;28;20573;-83
2020/12/21 09:09:43;;;;;;;1999.90;999.90;;;7.10;99.90;;;;;;5042544;28;20180;-83
2020/12/21 09:12:11;;;;;;;1999.90;999.90;;;7.10;99.90;;;;;;5041272;28;20165;-80
2020/12/21 09:14:37;;;;;;;1999.90;999.90;;;7.10;99.90;;;;;;5038591;28;20193;-79
2020/12/21 09:17:03;;;;;;;1999.90;999.90;;;7.10;99.90;;;;;;5039217;28;20166;-83
2020/12/21 09:19:29;;;;;;;1999.90;999.90;;;7.20;99.90;;;;;;5042066;28;20164;-83
2020/12/21 09:21:54;;;;;;;1999.90;999.90;;;7.20;99.90;;;;;;5040414;28;20180;-83
2020/12/21 09:24:20;;;;;;;1999.90;999.90;;;7.20;99.90;;;;;;5041734;28;20192;-83
2020/12/21 09:26:47;;;;;;;1999.90;999.90;;;7.20;99.90;;;;;;5041138;28;20165;-82
2020/12/21 09:29:12;;;;;;;1999.90;999.90;;;7.30;99.90;;;;;;5039815;28;20180;-83
2020/12/21 09:31:38;;;;;;;1999.90;999.90;;;7.30;99.90;;;;;;5039982;28;20165;-83
2020/12/21 09:34:03;;;;;;;1999.90;999.90;;;7.40;99.90;;;;;;5040592;28;20212;-83
2020/12/21 09:36:31;;;;;;;1999.90;999.90;;;7.40;99.90;;;;;;5039408;28;20512;-83
2020/12/21 09:38:56;;;;;;;1999.90;999.90;;;7.40;99.90;;;;;;5040659;28;20153;-83
2020/12/21 09:41:22;;;;;;;1999.90;999.90;;;7.50;99.90;;;;;;5040700;28;20162;-82
2020/12/21 09:43:49;;;;;;;1999.90;999.90;;;7.50;99.90;;;;;;5039817;28;20246;-83
2020/12/21 09:46:23;;;;;;;1999.90;999.90;;;7.60;99.90;;;;;;5040980;28;20902;-83
2020/12/21 09:48:50;;;;;;;1999.90;999.90;;;7.60;99.90;;;;;;5039623;28;20174;-83
2020/12/21 09:51:16;;;;;;;1999.90;999.90;;;7.70;99.90;;;;;;5038976;28;20184;-83
2020/12/21 09:53:43;;;;;;;1999.90;999.90;;;7.70;99.90;;;;;;5040192;28;20540;-83
2020/12/21 09:56:13;;;;;;;1999.90;999.90;;;7.80;99.90;;;;;;5039415;28;20161;-83
2020/12/21 09:58:39;;;;;;;1999.90;999.90;;;7.80;99.90;;;;;;5039229;28;20191;-83
2020/12/21 10:01:08;;;;;;;1999.90;999.90;;;7.80;99.90;;;;;;5039437;28;20576;-82
2020/12/21 10:03:34;;;;;;;1999.90;999.90;;;7.80;99.90;;;;;;5039296;28;20170;-83
2020/12/21 10:06:00;;;;;;;1999.90;999.90;;;7.80;99.90;;;;;;5039172;28;20166;-83
2020/12/21 10:08:25;;;;;;;1999.90;999.90;;;7.80;99.90;;;;;;5038775;28;20412;-83
2020/12/21 10:10:51;;;;;;;1999.90;999.90;;;7.90;99.90;;;;;;5038410;28;20184;-83
2020/12/21 10:13:16;;;;;;;1999.90;999.90;;;7.80;99.90;;;;;;5039208;28;20254;-82
2020/12/21 10:15:42;;;;;;;1999.90;999.90;;;7.90;99.90;;;;;;5039720;28;20185;-82
2020/12/21 10:18:08;;;;;;;1999.90;999.90;;;7.90;99.90;;;;;;5038848;28;20581;-82
2020/12/21 10:20:34;;;;;;;1999.90;999.90;;;7.90;99.90;;;;;;5038125;28;20686;-82
2020/12/21 10:23:00;;;;;;;1999.90;999.90;;;7.90;99.90;;;;;;5039468;28;20740;-82
2020/12/21 10:25:26;;;;;;;1999.90;999.90;;;7.90;99.90;;;;;;5037825;28;20203;-82
2020/12/21 10:27:51;;;;;;;1999.90;999.90;;;7.90;99.90;;;;;;5039130;28;20244;-82
2020/12/21 10:30:18;;;;;;;1999.90;999.90;;;7.90;99.90;;;;;;5038737;28;20165;-82
2020/12/21 10:32:43;;;;;;;1999.90;999.90;;;7.90;99.90;;;;;;5040044;28;20509;-83
2020/12/21 10:35:09;;;;;;;1999.90;999.90;;;8.00;99.90;;;;;;5039197;28;20168;-83
2020/12/21 10:37:35;;;;;;;1999.90;999.90;;;8.00;99.90;;;;;;5037476;28;20165;-83
2020/12/21 10:40:01;;;;;;;1999.90;999.90;;;8.00;99.90;;;;;;5039294;28;20284;-83
2020/12/21 10:42:27;;;;;;;1999.90;999.90;;;8.00;99.90;;;;;;5040187;28;20207;-83
2020/12/21 10:44:53;;;;;;;1999.90;999.90;;;8.10;99.90;;;;;;5040359;28;20173;-83
2020/12/21 10:47:18;;;;;;;1999.90;999.90;;;8.10;99.90;;;;;;5039388;28;20176;-83
2020/12/21 10:49:44;;;;;;;1999.90;999.90;;;8.20;99.90;;;;;;5040435;28;20181;-83
2020/12/21 10:52:09;;;;;;;1999.90;999.90;;;8.20;99.90;;;;;;5037241;28;20205;-82
2020/12/21 10:54:41;;;;;;;1999.90;999.90;;;8.20;99.90;;;;;;5036653;28;20193;-81
2020/12/21 10:57:11;;;;;;;1999.90;999.90;;;8.20;99.90;;;;;;5038811;28;20160;-81
2020/12/21 10:59:36;;;;;;;1999.90;999.90;;;8.20;99.90;;;;;;5037868;28;20635;-81
2020/12/21 11:02:02;;;;;;;1999.90;999.90;;;8.30;99.90;;;;;;5036725;28;20173;-81
2020/12/21 11:04:28;;;;;;;1999.90;999.90;;;8.30;99.90;;;;;;5035537;28;20778;-81
2020/12/21 11:06:55;;;;;;;1999.90;999.90;;;8.30;99.90;;;;;;5038828;28;20501;-81
2020/12/21 11:09:24;;;;;;;1999.90;999.90;;;8.30;99.90;;;;;;5036375;28;20264;-81
2020/12/21 11:11:50;;;;;;;1999.90;999.90;;;8.30;99.90;;;;;;5038767;28;20192;-82
2020/12/21 11:14:16;;;;;;;1999.90;999.90;;;8.30;99.90;;;;;;5036209;28;20191;-81
2020/12/21 11:16:49;;;;;;;1999.90;999.90;;;8.30;99.90;;;;;;5037833;28;20212;-82
2020/12/21 11:19:15;;;;;;;1999.90;999.90;;;8.30;99.90;;;;;;5038361;28;20180;-81
2020/12/21 11:21:42;;;;;;;1999.90;999.90;;;8.40;99.90;;;;;;5037690;28;20198;-81
2020/12/21 11:24:07;;;;;;;1999.90;999.90;;;8.40;99.90;;;;;;5037650;28;20527;-82
2020/12/21 11:26:33;;;;;;;1999.90;999.90;;;8.50;99.90;;;;;;5036881;28;20200;-80
2020/12/21 11:28:59;;;;;;;1999.90;999.90;;;8.50;99.90;;;;;;5036877;28;20509;-80
2020/12/21 11:31:24;;;;;;;1999.90;999.90;;;8.60;99.90;;;;;;5038599;28;20654;-82
2020/12/21 11:33:50;;;;;;;1999.90;999.90;;;8.60;99.90;;;;;;5038467;28;20279;-81
2020/12/21 11:36:18;;;;;;;1999.90;999.90;;;8.70;99.90;;;;;;5037530;28;20248;-82
2020/12/21 11:38:44;;;;;;;1999.90;999.90;;;8.70;99.90;;;;;;5039471;28;20171;-82
2020/12/21 11:41:10;;;;;;;1999.90;999.90;;;8.70;99.90;;;;;;5039300;28;20671;-82
2020/12/21 11:43:35;;;;;;;1999.90;999.90;;;8.70;99.90;;;;;;5040216;28;20184;-83
2020/12/21 11:46:01;;;;;;;1999.90;999.90;;;8.70;99.90;;;;;;5038233;28;20169;-83
2020/12/21 11:48:27;;;;;;;1999.90;999.90;;;8.70;99.90;;;;;;5040213;28;20208;-81
2020/12/21 11:50:53;;;;;;;1999.90;999.90;;;8.70;99.90;;;;;;5037970;28;20586;-81
2020/12/21 11:53:19;;;;;;;1999.90;999.90;;;8.60;99.90;;;;;;5037334;28;20458;-81
2020/12/21 11:55:47;;;;;;;1999.90;999.90;;;8.70;99.90;;;;;;5038598;28;20586;-81
2020/12/21 11:58:13;;;;;;;1999.90;999.90;;;8.70;99.90;;;;;;5038241;28;20408;-80
2020/12/21 12:00:44;;;;;;;1999.90;999.90;;;8.70;99.90;;;;;;5036572;28;20175;-83
2020/12/21 12:03:10;;;;;;;1999.90;999.90;;;8.70;99.90;;;;;;5039985;28;20384;-82
2020/12/21 12:05:35;;;;;;;1999.90;999.90;;;8.70;99.90;;;;;;5040250;28;20169;-82
2020/12/21 12:08:01;;;;;;;1999.90;999.90;;;8.70;99.90;;;;;;5037444;28;20575;-82
2020/12/21 12:10:30;;;;;;;1999.90;999.90;;;8.70;99.90;;;;;;5035976;28;20697;-81
2020/12/21 12:12:55;;;;;;;1999.90;999.90;;;8.70;99.90;;;;;;5098728;22;20218;-84